Time;durP1;ratioP1;P1;durP2;ratioP2;P2;SDS_P1;SDS_P2;PMS_P1;PMS_P2;Temp;Humidity;BMP_temperature;BMP_pressure;BME280_temperature;BME280_humidity;BME280_pressure;Samples;Min_cycle;Max_cycle;Signal;HPM_P1;HPM_P2
2023/06/22 00:01:22;;;;;;;14.27;13.07;;;22.10;1.00;;;;;;4966125;28;20545;-71
2023/06/22 00:03:49;;;;;;;13.30;12.30;;;22.10;1.00;;;;;;4966173;28;20484;-71
2023/06/22 00:06:17;;;;;;;14.17;12.33;;;22.10;1.00;;;;;;4966864;28;20468;-71
2023/06/22 00:08:44;;;;;;;13.90;12.80;;;22.10;1.00;;;;;;4964986;28;20549;-73
2023/06/22 00:11:12;;;;;;;13.87;12.77;;;22.10;1.00;;;;;;4966110;28;21047;-70
2023/06/22 00:13:39;;;;;;;13.10;12.00;;;22.10;1.00;;;;;;4964475;28;20899;-72
2023/06/22 00:16:06;;;;;;;13.60;12.43;;;22.10;1.00;;;;;;4968429;28;20473;-73
2023/06/22 00:18:33;;;;;;;13.50;12.30;;;22.00;1.00;;;;;;4965783;28;20956;-72
2023/06/22 00:21:00;;;;;;;13.43;12.40;;;22.00;1.00;;;;;;4963547;28;20570;-71
2023/06/22 00:23:27;;;;;;;14.07;12.90;;;21.90;1.00;;;;;;4968201;28;20520;-72
2023/06/22 00:25:54;;;;;;;14.03;12.97;;;21.90;1.00;;;;;;4968913;28;20488;-73
2023/06/22 00:28:22;;;;;;;15.47;14.10;;;21.80;1.00;;;;;;4969806;28;20466;-71
2023/06/22 00:30:50;;;;;;;13.50;12.47;;;21.80;1.00;;;;;;4969050;28;20460;-71
2023/06/22 00:33:17;;;;;;;13.77;12.67;;;21.80;1.00;;;;;;4967727;28;20464;-70
2023/06/22 00:35:44;;;;;;;14.03;12.97;;;21.70;1.00;;;;;;4969806;28;20559;-71
2023/06/22 00:38:11;;;;;;;13.30;12.10;;;21.70;1.00;;;;;;4967710;28;20550;-71
2023/06/22 00:40:38;;;;;;;14.60;13.40;;;21.60;1.00;;;;;;4968100;28;20469;-70
2023/06/22 00:43:06;;;;;;;14.33;12.90;;;21.60;1.00;;;;;;4967826;28;20469;-72
2023/06/22 00:45:34;;;;;;;15.63;14.27;;;21.60;1.00;;;;;;4967365;28;20473;-70
2023/06/22 00:48:02;;;;;;;15.40;14.00;;;21.60;1.00;;;;;;4965279;28;20471;-70
2023/06/22 00:50:33;;;;;;;14.87;13.67;;;21.50;1.00;;;;;;4970430;28;20480;-70
2023/06/22 00:53:04;;;;;;;14.70;13.50;;;21.50;1.00;;;;;;4968554;28;20502;-70
2023/06/22 00:55:31;;;;;;;13.63;12.53;;;21.50;1.00;;;;;;4969150;28;20503;-71
2023/06/22 00:57:58;;;;;;;14.13;13.03;;;21.50;1.00;;;;;;4968220;28;20563;-71
2023/06/22 01:00:26;;;;;;;14.50;13.30;;;21.50;1.00;;;;;;4967454;28;20587;-71
2023/06/22 01:02:58;;;;;;;15.20;14.00;;;21.50;1.00;;;;;;4995915;23;20482;-78
2023/06/22 01:05:25;;;;;;;14.93;13.80;;;21.40;1.00;;;;;;4955597;28;20503;-77
2023/06/22 01:08:08;;;;;;;14.63;13.47;;;21.40;1.00;;;;;;4940693;28;20953;-78
2023/06/22 01:10:44;;;;;;;16.10;15.00;;;21.40;1.00;;;;;;4953852;28;20549;-78
2023/06/22 01:13:22;;;;;;;14.30;13.20;;;21.40;1.00;;;;;;4959388;28;20463;-78
2023/06/22 01:15:54;;;;;;;15.30;13.90;;;21.40;1.00;;;;;;4953689;28;20599;-79
2023/06/22 01:18:25;;;;;;;16.60;15.20;;;21.40;1.00;;;;;;4958085;28;20461;-78
2023/06/22 01:20:55;;;;;;;16.27;14.87;;;21.40;1.00;;;;;;4956899;28;20592;-78
2023/06/22 01:23:30;;;;;;;15.53;14.23;;;21.40;1.00;;;;;;4956270;28;20570;-78
2023/06/22 01:26:06;;;;;;;14.90;13.40;;;21.30;1.00;;;;;;4954747;28;20641;-79
2023/06/22 01:28:46;;;;;;;15.60;14.40;;;21.30;1.00;;;;;;4958331;28;20467;-79
2023/06/22 01:31:16;;;;;;;15.87;14.67;;;21.30;1.00;;;;;;4956884;28;20478;-79
2023/06/22 01:33:46;;;;;;;16.00;14.70;;;21.30;1.00;;;;;;4956334;28;20465;-79
2023/06/22 01:36:14;;;;;;;16.77;15.47;;;21.40;1.00;;;;;;4955025;28;20460;-79
2023/06/22 01:38:44;;;;;;;16.10;14.77;;;21.30;1.00;;;;;;4954938;28;20960;-79
2023/06/22 01:41:12;;;;;;;15.60;14.30;;;21.30;1.00;;;;;;4953922;28;20453;-79
2023/06/22 01:43:42;;;;;;;17.23;15.67;;;21.20;1.00;;;;;;4953749;28;20546;-78
2023/06/22 01:46:09;;;;;;;17.33;15.73;;;21.20;1.00;;;;;;4954213;28;20525;-78
2023/06/22 01:48:37;;;;;;;18.00;16.50;;;21.10;1.00;;;;;;4955653;28;20536;-78
2023/06/22 01:51:04;;;;;;;17.10;15.60;;;21.10;1.00;;;;;;4958219;28;20477;-78
2023/06/22 01:53:34;;;;;;;17.80;16.30;;;21.10;1.00;;;;;;4953802;28;20522;-78
2023/06/22 01:56:01;;;;;;;18.00;16.40;;;21.10;1.00;;;;;;4951317;28;20551;-78
2023/06/22 01:58:30;;;;;;;18.90;17.00;;;21.10;1.00;;;;;;4952485;28;20499;-78
2023/06/22 02:01:04;;;;;;;18.67;17.17;;;21.10;1.00;;;;;;4953503;28;20467;-78
2023/06/22 02:03:35;;;;;;;16.80;15.50;;;21.10;1.00;;;;;;4956017;28;20466;-77
2023/06/22 02:06:07;;;;;;;17.20;15.90;;;21.10;1.00;;;;;;4953677;28;20431;-78
2023/06/22 02:08:41;;;;;;;17.37;15.97;;;21.10;1.00;;;;;;4949900;28;20471;-78
2023/06/22 02:11:10;;;;;;;17.83;16.23;;;21.20;1.00;;;;;;4952801;28;20515;-78
2023/06/22 02:13:42;;;;;;;16.87;15.47;;;21.20;1.00;;;;;;4960072;28;21286;-78
2023/06/22 02:16:15;;;;;;;18.13;16.63;;;21.20;1.00;;;;;;4955722;28;20890;-78
2023/06/22 02:18:47;;;;;;;17.93;16.63;;;21.10;1.00;;;;;;4953998;28;20626;-78
2023/06/22 02:21:14;;;;;;;18.77;17.27;;;21.10;1.00;;;;;;4954048;28;20564;-78
2023/06/22 02:23:41;;;;;;;20.13;18.37;;;21.00;1.00;;;;;;4953664;28;20456;-78
2023/06/22 02:26:09;;;;;;;18.40;17.00;;;21.00;1.00;;;;;;4955909;28;20565;-78
2023/06/22 02:28:36;;;;;;;20.23;18.53;;;21.00;1.00;;;;;;4956410;28;20455;-78
2023/06/22 02:31:03;;;;;;;18.03;16.53;;;21.00;1.00;;;;;;4955429;28;20505;-79
2023/06/22 02:33:31;;;;;;;20.53;18.70;;;21.00;1.00;;;;;;4957204;28;20487;-78
2023/06/22 02:35:58;;;;;;;19.37;17.87;;;21.00;1.00;;;;;;4952703;28;20473;-79
2023/06/22 02:38:26;;;;;;;20.13;18.40;;;21.00;1.00;;;;;;4957997;28;20520;-79
2023/06/22 02:40:53;;;;;;;19.30;17.70;;;21.00;1.00;;;;;;4954840;28;20473;-79
2023/06/22 02:43:20;;;;;;;19.43;17.73;;;21.10;1.00;;;;;;4952868;28;20487;-79
2023/06/22 02:45:47;;;;;;;17.60;16.30;;;21.10;1.00;;;;;;4952816;28;20445;-79
2023/06/22 02:48:14;;;;;;;20.07;18.30;;;21.10;1.00;;;;;;4955232;28;20570;-78
2023/06/22 02:50:42;;;;;;;18.80;17.20;;;21.10;1.00;;;;;;4953817;28;20487;-78
2023/06/22 02:53:09;;;;;;;19.70;18.00;;;21.20;1.00;;;;;;4953637;28;20494;-78
2023/06/22 02:55:36;;;;;;;20.53;18.57;;;21.20;1.00;;;;;;4952614;28;20473;-79
2023/06/22 02:58:04;;;;;;;20.80;18.90;;;21.20;1.00;;;;;;4952612;28;20470;-78
2023/06/22 03:00:32;;;;;;;19.00;17.40;;;21.20;1.00;;;;;;4950346;28;20429;-78
2023/06/22 03:02:59;;;;;;;19.57;17.83;;;21.20;1.00;;;;;;4949796;28;20520;-78
2023/06/22 03:05:26;;;;;;;19.50;17.90;;;21.20;1.00;;;;;;4951817;28;20930;-78
2023/06/22 03:07:57;;;;;;;19.77;18.07;;;21.30;1.00;;;;;;4956128;28;20886;-77
2023/06/22 03:10:24;;;;;;;19.50;17.90;;;21.30;1.00;;;;;;4949416;28;20877;-79
2023/06/22 03:12:51;;;;;;;19.00;17.40;;;21.30;1.00;;;;;;4955153;28;20527;-79
2023/06/22 03:15:18;;;;;;;18.13;16.73;;;21.40;1.00;;;;;;4948947;28;20502;-79
2023/06/22 03:17:47;;;;;;;17.97;16.47;;;21.40;1.00;;;;;;4949848;28;20475;-77
2023/06/22 03:20:14;;;;;;;17.87;16.10;;;21.40;1.00;;;;;;4953181;28;20478;-77
2023/06/22 03:22:42;;;;;;;17.93;16.47;;;21.40;1.00;;;;;;4953644;28;20489;-78
2023/06/22 03:25:14;;;;;;;17.13;15.53;;;21.30;1.00;;;;;;4952372;28;20499;-79
2023/06/22 03:27:44;;;;;;;26.50;15.70;;;21.30;1.00;;;;;;4949681;28;20591;-78
2023/06/22 03:30:12;;;;;;;14.90;13.60;;;21.20;1.00;;;;;;4953233;28;20486;-77
2023/06/22 03:32:40;;;;;;;14.17;12.97;;;21.10;1.00;;;;;;4948183;28;20490;-77
2023/06/22 03:35:08;;;;;;;14.33;13.10;;;21.10;1.00;;;;;;4953838;28;20989;-78
2023/06/22 03:37:35;;;;;;;14.13;12.93;;;21.00;1.00;;;;;;4955731;28;20531;-78
2023/06/22 03:40:02;;;;;;;15.50;13.70;;;20.90;1.00;;;;;;4954588;28;20518;-78
2023/06/22 03:42:31;;;;;;;15.50;14.10;;;21.00;1.00;;;;;;4948181;28;20583;-79
2023/06/22 03:44:58;;;;;;;14.03;12.63;;;21.00;1.00;;;;;;4952377;28;20467;-78
2023/06/22 03:47:26;;;;;;;13.13;12.03;;;21.00;1.00;;;;;;4949645;28;20467;-78
2023/06/22 03:49:55;;;;;;;13.07;12.07;;;21.10;1.00;;;;;;4952053;28;20488;-77
2023/06/22 03:52:22;;;;;;;14.27;13.07;;;21.10;1.00;;;;;;4953464;28;20423;-77
2023/06/22 03:54:49;;;;;;;13.70;12.50;;;21.00;1.00;;;;;;4952222;28;20474;-78
2023/06/22 03:57:18;;;;;;;12.37;11.37;;;21.00;1.00;;;;;;4945971;28;20901;-78
2023/06/22 03:59:46;;;;;;;11.53;10.53;;;21.10;1.00;;;;;;4933338;28;20489;-79
2023/06/22 04:02:13;;;;;;;12.57;11.43;;;21.00;1.00;;;;;;4956249;28;20502;-78
2023/06/22 04:04:41;;;;;;;12.80;11.70;;;21.00;1.00;;;;;;4949484;28;20476;-78
2023/06/22 04:07:08;;;;;;;11.23;10.33;;;20.90;1.00;;;;;;4953919;28;21028;-78
2023/06/22 04:09:35;;;;;;;11.77;10.60;;;20.90;1.00;;;;;;4939730;28;20473;-79
2023/06/22 04:12:03;;;;;;;11.13;10.20;;;20.90;1.00;;;;;;4956387;28;20457;-79
2023/06/22 04:14:30;;;;;;;12.13;11.13;;;20.90;1.00;;;;;;4924768;28;20470;-78
2023/06/22 04:17:01;;;;;;;12.97;11.67;;;20.90;1.00;;;;;;4955663;28;20482;-79
2023/06/22 04:19:28;;;;;;;12.53;11.33;;;20.90;1.00;;;;;;4949966;28;20495;-78
2023/06/22 04:21:55;;;;;;;14.60;13.30;;;21.00;1.00;;;;;;4943521;28;20469;-79
2023/06/22 04:24:23;;;;;;;13.00;11.70;;;21.00;1.00;;;;;;4924847;28;20991;-79
2023/06/22 04:26:54;;;;;;;12.60;11.60;;;21.10;1.00;;;;;;4956337;28;20982;-78
2023/06/22 04:29:29;;;;;;;12.83;11.00;;;21.10;1.00;;;;;;4957745;28;20523;-78
2023/06/22 04:32:04;;;;;;;12.50;11.50;;;21.10;1.00;;;;;;4957329;28;20466;-78
2023/06/22 04:34:35;;;;;;;11.93;10.93;;;21.10;1.00;;;;;;4958301;28;20468;-79
2023/06/22 04:37:04;;;;;;;11.57;10.47;;;21.20;1.00;;;;;;4955539;28;20984;-80
2023/06/22 04:39:37;;;;;;;11.27;10.47;;;21.20;1.00;;;;;;4954423;28;20961;-78
2023/06/22 04:42:08;;;;;;;11.93;10.70;;;21.30;1.00;;;;;;4958831;28;20492;-78
2023/06/22 04:44:35;;;;;;;14.33;12.83;;;21.30;1.00;;;;;;4951772;28;20445;-79
2023/06/22 04:47:08;;;;;;;10.70;9.67;;;21.30;1.00;;;;;;4953483;28;20481;-79
2023/06/22 04:49:40;;;;;;;11.53;10.37;;;21.40;1.00;;;;;;4951035;28;20473;-79
2023/06/22 04:52:09;;;;;;;10.97;9.97;;;21.40;1.00;;;;;;4953781;28;20521;-78
2023/06/22 04:54:37;;;;;;;11.60;10.50;;;21.40;1.00;;;;;;4954454;28;20477;-78
2023/06/22 04:57:09;;;;;;;13.37;12.17;;;21.40;1.00;;;;;;4952123;28;20483;-79
2023/06/22 04:59:41;;;;;;;11.97;10.70;;;21.50;1.00;;;;;;4952952;28;20493;-79
2023/06/22 05:02:10;;;;;;;13.30;12.07;;;21.60;1.00;;;;;;4950065;28;20462;-79
2023/06/22 05:04:39;;;;;;;13.07;11.83;;;21.70;1.00;;;;;;4954176;28;20547;-79
2023/06/22 05:07:09;;;;;;;13.07;11.87;;;21.90;1.00;;;;;;4952747;28;20478;-78
2023/06/22 05:09:37;;;;;;;12.00;11.00;;;22.00;1.00;;;;;;4935375;28;20472;-78
2023/06/22 05:12:06;;;;;;;14.10;11.63;;;22.20;1.00;;;;;;4951539;28;20445;-79
2023/06/22 05:14:33;;;;;;;10.87;9.90;;;22.40;1.00;;;;;;4943513;28;20471;-79
2023/06/22 05:17:03;;;;;;;12.67;11.57;;;22.50;1.00;;;;;;4955407;28;20888;-78
2023/06/22 05:19:34;;;;;;;12.47;11.37;;;22.60;1.00;;;;;;4955635;28;20569;-79
2023/06/22 05:22:01;;;;;;;12.37;11.00;;;22.70;1.00;;;;;;4956806;28;20563;-79
2023/06/22 05:24:30;;;;;;;13.30;10.23;;;22.80;1.00;;;;;;4953739;28;20475;-78
2023/06/22 05:26:57;;;;;;;11.40;10.37;;;22.80;1.00;;;;;;4954065;28;20436;-78
2023/06/22 05:29:24;;;;;;;11.80;10.77;;;22.90;1.00;;;;;;4951494;28;20485;-79
2023/06/22 05:31:54;;;;;;;10.83;9.40;;;22.90;1.00;;;;;;4951884;28;20974;-78
2023/06/22 05:34:21;;;;;;;11.23;10.33;;;22.90;1.00;;;;;;4956880;28;20474;-77
2023/06/22 05:36:50;;;;;;;9.43;8.73;;;23.00;1.00;;;;;;4954436;28;20470;-77
2023/06/22 05:39:18;;;;;;;10.00;9.10;;;23.00;1.00;;;;;;4956566;28;20482;-77
2023/06/22 05:41:47;;;;;;;9.57;8.57;;;22.90;1.00;;;;;;4955540;28;20455;-77
2023/06/22 05:44:16;;;;;;;9.27;8.37;;;22.80;1.00;;;;;;4935670;28;20465;-79
2023/06/22 05:46:46;;;;;;;11.03;8.33;;;22.90;1.00;;;;;;4953079;28;21198;-78
2023/06/22 05:49:15;;;;;;;9.67;8.83;;;23.10;1.00;;;;;;4954296;28;20469;-77
2023/06/22 05:51:43;;;;;;;8.83;8.13;;;23.30;1.00;;;;;;4950308;28;20855;-77
2023/06/22 05:54:17;;;;;;;8.83;8.13;;;23.40;1.00;;;;;;4954604;28;20852;-77
2023/06/22 05:56:45;;;;;;;8.00;7.30;;;23.50;1.00;;;;;;4954629;28;20451;-78
2023/06/22 05:59:12;;;;;;;8.80;8.10;;;23.50;1.00;;;;;;4949334;28;20509;-76
2023/06/22 06:01:44;;;;;;;9.27;8.57;;;23.70;1.00;;;;;;4953473;28;20470;-78
2023/06/22 06:04:11;;;;;;;8.10;7.40;;;23.80;1.00;;;;;;4955464;28;20459;-78
2023/06/22 06:06:38;;;;;;;12.60;10.37;;;23.70;1.00;;;;;;4959994;28;20457;-78
2023/06/22 06:09:15;;;;;;;8.47;7.50;;;23.60;1.00;;;;;;4953883;28;20482;-77
2023/06/22 06:11:47;;;;;;;7.73;7.13;;;23.70;1.00;;;;;;4950918;28;20471;-77
2023/06/22 06:14:14;;;;;;;7.97;7.17;;;23.80;1.00;;;;;;4956364;28;20490;-78
2023/06/22 06:16:51;;;;;;;9.17;7.30;;;23.80;1.00;;;;;;4933116;28;20468;-78
2023/06/22 06:19:18;;;;;;;7.80;7.20;;;23.80;1.00;;;;;;4950484;28;20471;-77
2023/06/22 06:21:46;;;;;;;8.50;7.80;;;23.80;1.00;;;;;;4952156;28;20494;-77
2023/06/22 06:24:14;;;;;;;7.70;7.00;;;23.80;1.00;;;;;;4955347;28;20470;-78
2023/06/22 06:26:41;;;;;;;7.33;6.73;;;23.80;1.00;;;;;;4954484;28;20467;-78
2023/06/22 06:29:09;;;;;;;9.40;7.63;;;23.80;1.00;;;;;;4961890;28;21508;-77
2023/06/22 06:31:37;;;;;;;7.90;7.10;;;23.60;1.00;;;;;;4955150;28;20459;-77
2023/06/22 06:34:04;;;;;;;8.93;7.60;;;23.70;1.00;;;;;;4957314;28;20467;-77
2023/06/22 06:36:31;;;;;;;9.23;7.57;;;23.80;1.00;;;;;;4955541;28;20474;-79
2023/06/22 06:38:58;;;;;;;9.43;8.63;;;23.80;1.00;;;;;;4951833;28;20526;-77
2023/06/22 06:41:26;;;;;;;8.53;6.50;;;23.80;1.00;;;;;;4953899;28;20495;-77
2023/06/22 06:44:30;;;;;;;7.30;6.70;;;23.80;1.00;;;;;;4953314;28;20462;-78
2023/06/22 06:46:57;;;;;;;6.67;6.07;;;24.10;1.00;;;;;;4952900;28;20477;-77
2023/06/22 06:49:26;;;;;;;7.20;6.60;;;24.30;1.00;;;;;;4956485;28;20599;-77
2023/06/22 06:51:55;;;;;;;6.43;5.93;;;24.50;1.00;;;;;;4955513;28;20520;-77
2023/06/22 06:54:24;;;;;;;6.00;5.50;;;24.80;1.00;;;;;;4950337;28;20482;-77
2023/06/22 06:56:51;;;;;;;6.67;6.07;;;25.00;1.00;;;;;;4953667;28;20465;-78
2023/06/22 06:59:20;;;;;;;7.73;6.20;;;25.10;1.00;;;;;;4949648;28;20502;-78
2023/06/22 07:01:53;;;;;;;6.50;5.40;;;25.10;1.00;;;;;;4954291;28;20468;-78
2023/06/22 07:04:21;;;;;;;5.67;5.17;;;25.30;1.00;;;;;;4954732;28;20474;-76
2023/06/22 07:06:54;;;;;;;6.60;6.00;;;25.50;1.00;;;;;;4940830;28;21060;-80
2023/06/22 07:09:23;;;;;;;6.90;5.80;;;25.50;1.00;;;;;;4952517;28;20496;-78
2023/06/22 07:11:50;;;;;;;6.03;4.90;;;25.60;1.00;;;;;;4954019;28;20516;-77
2023/06/22 07:14:18;;;;;;;6.03;5.53;;;25.20;1.00;;;;;;4954507;28;20533;-78
2023/06/22 07:16:48;;;;;;;6.73;6.13;;;25.00;1.00;;;;;;4957751;28;20479;-76
2023/06/22 07:19:16;;;;;;;5.97;5.07;;;25.00;1.00;;;;;;4955652;28;20995;-77
2023/06/22 07:21:43;;;;;;;5.30;4.80;;;24.90;1.00;;;;;;4954271;28;20475;-78
2023/06/22 07:24:11;;;;;;;5.73;5.13;;;25.10;1.00;;;;;;4957543;28;20478;-77
2023/06/22 07:26:38;;;;;;;5.87;5.27;;;25.10;1.00;;;;;;4951657;28;20868;-78
2023/06/22 07:29:08;;;;;;;3.70;3.40;;;25.30;1.00;;;;;;4958240;28;20550;-78
2023/06/22 07:31:35;;;;;;;5.27;4.20;;;25.70;1.00;;;;;;4945477;28;20456;-79
2023/06/22 07:34:04;;;;;;;5.27;4.77;;;25.90;1.00;;;;;;4955953;28;20858;-78
2023/06/22 07:36:32;;;;;;;6.97;5.63;;;26.10;1.00;;;;;;4958757;28;20624;-79
2023/06/22 07:39:02;;;;;;;5.30;4.80;;;26.30;1.00;;;;;;4954363;28;20480;-79
2023/06/22 07:41:37;;;;;;;6.03;4.80;;;26.40;1.00;;;;;;4955433;28;20514;-78
2023/06/22 07:44:04;;;;;;;4.23;3.83;;;26.50;1.00;;;;;;4948322;28;20462;-79
2023/06/22 07:46:32;;;;;;;6.27;3.57;;;26.70;1.00;;;;;;4955537;28;21999;-79
2023/06/22 07:49:01;;;;;;;4.17;3.87;;;26.90;1.00;;;;;;4959817;28;20475;-78
2023/06/22 07:51:31;;;;;;;4.80;3.80;;;26.90;1.00;;;;;;4938549;28;20500;-77
2023/06/22 07:53:58;;;;;;;6.13;4.30;;;26.90;1.00;;;;;;4952104;28;20550;-78
2023/06/22 07:56:26;;;;;;;4.73;3.97;;;27.10;1.00;;;;;;4953130;28;20441;-77
2023/06/22 07:58:57;;;;;;;4.90;3.73;;;27.20;1.00;;;;;;4954507;28;21412;-78
2023/06/22 08:01:25;;;;;;;4.27;3.77;;;27.30;1.00;;;;;;4954099;28;20464;-78
2023/06/22 08:04:01;;;;;;;5.00;3.80;;;27.30;1.00;;;;;;4951530;28;20479;-79
2023/06/22 08:06:34;;;;;;;4.97;3.30;;;27.40;1.00;;;;;;4953378;28;20554;-77
2023/06/22 08:09:04;;;;;;;4.53;4.10;;;27.60;1.00;;;;;;4951954;28;20551;-79
2023/06/22 08:11:33;;;;;;;5.40;3.60;;;27.80;1.00;;;;;;4952543;28;20569;-79
2023/06/22 08:14:01;;;;;;;6.47;4.10;;;27.70;1.00;;;;;;4941622;28;20987;-79
2023/06/22 08:16:28;;;;;;;4.10;3.80;;;27.50;1.00;;;;;;4940100;28;20487;-78
2023/06/22 08:18:57;;;;;;;4.07;3.73;;;27.30;1.00;;;;;;4954019;28;20528;-78
2023/06/22 08:21:26;;;;;;;4.53;4.03;;;27.20;1.00;;;;;;4956154;28;20518;-77
2023/06/22 08:23:56;;;;;;;4.80;4.30;;;27.30;1.00;;;;;;4931183;28;20531;-79
2023/06/22 08:26:24;;;;;;;5.57;4.60;;;27.50;1.00;;;;;;4946521;28;21006;-79
2023/06/22 08:28:52;;;;;;;4.50;4.10;;;27.80;1.00;;;;;;4955422;28;20543;-80
2023/06/22 08:31:19;;;;;;;4.77;4.37;;;28.00;1.00;;;;;;4942254;28;20465;-80
2023/06/22 08:33:49;;;;;;;5.40;4.90;;;28.10;1.00;;;;;;4953113;28;20556;-79
2023/06/22 08:36:17;;;;;;;6.10;5.23;;;28.30;1.00;;;;;;4950824;28;20980;-79
2023/06/22 08:38:50;;;;;;;5.03;4.37;;;28.50;1.00;;;;;;4952008;28;20528;-80
2023/06/22 08:41:18;;;;;;;4.87;4.47;;;28.50;1.00;;;;;;4953424;28;20464;-78
2023/06/22 08:43:46;;;;;;;5.10;4.70;;;28.80;1.00;;;;;;4950645;28;20474;-77
2023/06/22 08:46:19;;;;;;;6.27;4.20;;;28.90;1.00;;;;;;4953095;28;20426;-79
2023/06/22 08:48:47;;;;;;;4.30;3.93;;;29.00;1.00;;;;;;4951923;28;20446;-77
2023/06/22 08:51:15;;;;;;;5.37;4.90;;;29.00;1.00;;;;;;4950208;28;20479;-80
2023/06/22 08:53:43;;;;;;;5.20;4.70;;;29.20;1.00;;;;;;4951306;28;20471;-79
2023/06/22 08:56:10;;;;;;;4.40;4.07;;;29.30;1.00;;;;;;4937398;28;20482;-80
2023/06/22 08:58:41;;;;;;;4.60;4.20;;;29.50;1.00;;;;;;4951312;28;20518;-78
2023/06/22 09:01:10;;;;;;;5.80;5.00;;;29.70;1.00;;;;;;4951532;28;21175;-78
2023/06/22 09:03:38;;;;;;;5.50;5.00;;;29.80;1.00;;;;;;4948747;28;21062;-78
2023/06/22 09:06:05;;;;;;;5.10;4.70;;;29.80;1.00;;;;;;4954416;28;20467;-79
2023/06/22 09:08:35;;;;;;;6.03;5.00;;;29.20;1.00;;;;;;4955531;28;20486;-78
2023/06/22 09:11:03;;;;;;;4.70;4.30;;;29.50;1.00;;;;;;4951175;28;20961;-79
2023/06/22 09:13:36;;;;;;;5.13;4.67;;;30.00;1.00;;;;;;4953163;28;20468;-79
2023/06/22 09:16:08;;;;;;;4.27;3.83;;;30.20;1.00;;;;;;4945766;28;20484;-79
2023/06/22 09:18:36;;;;;;;5.07;4.37;;;30.30;1.00;;;;;;4955246;28;20476;-79
2023/06/22 09:21:09;;;;;;;5.23;4.73;;;30.30;1.00;;;;;;4957258;28;20599;-78
2023/06/22 09:23:36;;;;;;;4.30;3.90;;;30.30;1.00;;;;;;4947857;28;20453;-80
2023/06/22 09:26:04;;;;;;;5.00;4.60;;;30.00;1.00;;;;;;4949417;28;20450;-79
2023/06/22 09:28:33;;;;;;;5.27;4.83;;;30.10;1.00;;;;;;4944435;28;20985;-78
2023/06/22 09:31:00;;;;;;;5.20;4.70;;;30.20;1.00;;;;;;4954179;28;20532;-78
2023/06/22 09:33:32;;;;;;;11.73;6.47;;;30.30;1.00;;;;;;4943228;28;20935;-78
2023/06/22 09:36:01;;;;;;;4.80;4.33;;;30.60;1.00;;;;;;4924934;28;20811;-79
2023/06/22 09:38:30;;;;;;;4.63;4.23;;;30.80;1.00;;;;;;4950185;28;20484;-79
2023/06/22 09:41:06;;;;;;;6.10;4.23;;;30.80;1.00;;;;;;4955463;28;20473;-79
2023/06/22 09:43:36;;;;;;;7.70;5.23;;;31.00;1.00;;;;;;4944564;28;20468;-78
2023/06/22 09:46:03;;;;;;;4.70;4.30;;;31.30;1.00;;;;;;4954541;28;20503;-79
2023/06/22 09:48:31;;;;;;;4.90;4.40;;;31.70;1.00;;;;;;4955063;28;20824;-79
2023/06/22 09:50:59;;;;;;;4.97;4.57;;;31.80;1.00;;;;;;4956849;28;20650;-79
2023/06/22 09:53:26;;;;;;;3.83;3.60;;;31.90;1.00;;;;;;4949533;28;20893;-78
2023/06/22 09:55:54;;;;;;;4.57;4.20;;;31.90;1.00;;;;;;4950910;28;20464;-80
2023/06/22 09:58:21;;;;;;;4.50;4.20;;;32.00;1.00;;;;;;4951592;28;20445;-78
2023/06/22 10:00:48;;;;;;;5.40;5.00;;;32.20;1.00;;;;;;4954318;28;20956;-78
2023/06/22 10:03:15;;;;;;;6.23;4.90;;;32.60;1.00;;;;;;4950016;28;20986;-79
2023/06/22 10:05:44;;;;;;;4.97;4.47;;;32.70;1.00;;;;;;4952414;28;20521;-78
2023/06/22 10:08:11;;;;;;;5.33;4.93;;;32.90;1.00;;;;;;4951416;28;20512;-79
2023/06/22 10:10:40;;;;;;;4.80;4.40;;;32.70;1.00;;;;;;4958027;28;20918;-77
2023/06/22 10:13:11;;;;;;;5.17;4.67;;;32.50;1.00;;;;;;4956440;28;20476;-78
2023/06/22 10:15:39;;;;;;;5.07;4.67;;;32.20;1.00;;;;;;4953574;28;21040;-78
2023/06/22 10:18:07;;;;;;;5.93;5.40;;;32.00;1.00;;;;;;4937342;28;20563;-77
2023/06/22 10:20:35;;;;;;;5.50;4.30;;;32.50;1.00;;;;;;4935923;28;20472;-78
2023/06/22 10:23:04;;;;;;;5.10;4.63;;;32.70;1.00;;;;;;4954548;28;20991;-78
2023/06/22 10:25:31;;;;;;;5.03;4.63;;;33.30;1.00;;;;;;4952685;28;20473;-78
2023/06/22 10:27:59;;;;;;;5.17;4.77;;;33.50;1.00;;;;;;4955634;28;20459;-78
2023/06/22 10:30:32;;;;;;;4.93;4.57;;;33.80;1.00;;;;;;4953722;28;21134;-78
2023/06/22 10:33:04;;;;;;;5.83;4.90;;;33.90;1.00;;;;;;4951018;28;20464;-77
2023/06/22 10:35:32;;;;;;;6.57;5.37;;;34.30;1.00;;;;;;4954325;28;20990;-79
2023/06/22 10:38:00;;;;;;;4.83;4.33;;;34.70;1.00;;;;;;4953021;28;20504;-78
2023/06/22 10:40:28;;;;;;;4.77;4.23;;;35.20;1.00;;;;;;4953941;28;20460;-78
2023/06/22 10:42:56;;;;;;;5.20;4.80;;;34.80;1.00;;;;;;4957493;28;20476;-78
2023/06/22 10:45:28;;;;;;;4.20;3.90;;;35.20;1.00;;;;;;4949598;28;20428;-80
2023/06/22 10:47:56;;;;;;;4.60;4.20;;;35.00;1.00;;;;;;4956351;28;20445;-80
2023/06/22 10:50:25;;;;;;;5.40;4.70;;;35.60;1.00;;;;;;4957761;28;20516;-78
2023/06/22 10:52:52;;;;;;;6.23;5.37;;;36.60;1.00;;;;;;4952549;28;20564;-81
2023/06/22 10:55:21;;;;;;;4.80;4.40;;;37.30;1.00;;;;;;4950865;28;20906;-80
2023/06/22 10:57:52;;;;;;;4.40;4.00;;;37.40;1.00;;;;;;4953730;28;20483;-79
2023/06/22 11:00:21;;;;;;;3.97;3.67;;;37.40;1.00;;;;;;4951656;28;20540;-80
2023/06/22 11:03:00;;;;;;;4.63;4.23;;;37.00;1.00;;;;;;4949072;28;20460;-78
2023/06/22 11:08:26;;;;;;;4.63;3.63;;;38.30;1.00;;;;;;4957039;28;20608;-79
2023/06/22 11:10:55;;;;;;;4.77;4.37;;;38.90;1.00;;;;;;4957740;28;20572;-79
2023/06/22 11:13:24;;;;;;;4.30;3.90;;;39.90;1.00;;;;;;4953648;28;20479;-79
2023/06/22 11:15:52;;;;;;;4.47;4.07;;;39.20;1.00;;;;;;4952575;28;20812;-77
2023/06/22 11:18:19;;;;;;;4.40;4.10;;;38.80;1.00;;;;;;4948486;28;20476;-83
2023/06/22 11:20:50;;;;;;;4.43;4.13;;;38.30;1.00;;;;;;4954087;28;20417;-81
2023/06/22 11:23:17;;;;;;;6.47;3.90;;;37.90;1.00;;;;;;4952183;28;20484;-80
2023/06/22 11:25:50;;;;;;;4.30;3.90;;;37.00;1.00;;;;;;4939295;28;20467;-80
2023/06/22 11:28:19;;;;;;;5.40;4.40;;;36.70;1.00;;;;;;4944815;28;20481;-78
2023/06/22 11:30:48;;;;;;;4.67;4.27;;;37.10;1.00;;;;;;4947113;28;20461;-79
2023/06/22 11:33:15;;;;;;;4.40;4.00;;;37.70;1.00;;;;;;4951556;28;20465;-79
2023/06/22 11:35:42;;;;;;;5.67;5.13;;;38.10;1.00;;;;;;4950950;28;20516;-80
2023/06/22 11:38:10;;;;;;;4.40;4.00;;;38.90;1.00;;;;;;4951005;28;21243;-79
2023/06/22 11:40:39;;;;;;;7.07;6.40;;;39.60;1.00;;;;;;4949615;28;20633;-79
2023/06/22 11:43:06;;;;;;;5.97;5.40;;;40.60;1.00;;;;;;4950739;28;20992;-79
2023/06/22 11:45:33;;;;;;;4.33;3.93;;;41.40;1.00;;;;;;4952665;28;21004;-80
2023/06/22 11:48:02;;;;;;;4.43;4.10;;;41.80;1.00;;;;;;4947616;28;20528;-78
2023/06/22 11:50:30;;;;;;;6.30;5.70;;;41.80;1.00;;;;;;4951064;28;21159;-79
2023/06/22 11:52:57;;;;;;;4.73;4.33;;;41.40;1.00;;;;;;4956049;28;20480;-78
2023/06/22 11:55:25;;;;;;;4.33;3.93;;;41.80;1.00;;;;;;4949774;28;20556;-78
2023/06/22 11:57:58;;;;;;;4.83;4.43;;;41.60;1.00;;;;;;4953401;28;20469;-79
2023/06/22 12:00:25;;;;;;;4.27;3.87;;;41.00;1.00;;;;;;4953074;28;20994;-79
2023/06/22 12:02:55;;;;;;;4.67;4.37;;;40.90;1.00;;;;;;4951913;28;20555;-79
2023/06/22 12:05:25;;;;;;;4.97;4.67;;;41.70;1.00;;;;;;4937409;28;20881;-79
2023/06/22 12:07:56;;;;;;;5.10;4.70;;;41.90;1.00;;;;;;4956514;28;20555;-79
2023/06/22 12:10:28;;;;;;;5.03;4.73;;;42.20;1.00;;;;;;4951161;28;20936;-79
2023/06/22 12:12:55;;;;;;;4.40;4.10;;;42.60;1.00;;;;;;4952294;28;21133;-78
2023/06/22 12:15:22;;;;;;;5.30;4.80;;;42.80;1.00;;;;;;4953796;28;20465;-79
2023/06/22 12:17:51;;;;;;;4.93;4.53;;;42.60;1.00;;;;;;4949568;28;20524;-79
2023/06/22 12:20:19;;;;;;;5.33;4.90;;;42.70;1.00;;;;;;4952763;28;20486;-79
2023/06/22 12:22:47;;;;;;;6.23;5.63;;;43.10;1.00;;;;;;4953499;28;20492;-80
2023/06/22 12:25:14;;;;;;;5.00;4.50;;;42.70;1.00;;;;;;4953728;28;20557;-79
2023/06/22 12:27:45;;;;;;;5.10;4.70;;;43.20;1.00;;;;;;4956611;28;20469;-78
2023/06/22 12:30:12;;;;;;;5.33;4.93;;;41.30;1.00;;;;;;4951983;28;20896;-78
2023/06/22 12:32:40;;;;;;;5.93;5.33;;;40.10;1.00;;;;;;4955410;28;20535;-78
2023/06/22 12:35:13;;;;;;;5.20;4.77;;;39.30;1.00;;;;;;4953729;28;20861;-80
2023/06/22 12:37:42;;;;;;;5.23;4.73;;;39.40;1.00;;;;;;4957477;28;20561;-79
2023/06/22 12:40:13;;;;;;;5.30;4.90;;;39.60;1.00;;;;;;4954534;28;20476;-80
2023/06/22 12:42:42;;;;;;;5.10;4.70;;;40.10;1.00;;;;;;4956828;28;21083;-79
2023/06/22 12:45:10;;;;;;;5.00;4.53;;;40.90;1.00;;;;;;4942280;28;21424;-80
2023/06/22 12:47:37;;;;;;;5.63;5.23;;;41.80;1.00;;;;;;4955172;28;20468;-80
2023/06/22 12:50:07;;;;;;;4.87;4.57;;;42.00;1.00;;;;;;4954643;28;20559;-79
2023/06/22 12:52:38;;;;;;;6.10;5.47;;;41.80;1.00;;;;;;4958866;28;20922;-80
2023/06/22 12:55:07;;;;;;;5.57;5.17;;;42.00;1.00;;;;;;4953225;28;20456;-77
2023/06/22 12:57:35;;;;;;;5.17;4.77;;;41.50;1.00;;;;;;4955530;28;20593;-78
2023/06/22 13:00:05;;;;;;;5.53;5.13;;;40.80;1.00;;;;;;4955974;28;20506;-77